sensor_id;sensor_type;location;lat;lon;timestamp;temperature;humidity
1329;DHT22;658;48.820;9.354;2022-07-17T00:01:21;23.40;47.20
1329;DHT22;658;48.820;9.354;2022-07-17T00:05:21;23.30;47.10
1329;DHT22;658;48.820;9.354;2022-07-17T00:09:23;23.40;47.10
1329;DHT22;658;48.820;9.354;2022-07-17T00:13:24;23.40;47.10
1329;DHT22;658;48.820;9.354;2022-07-17T00:17:24;23.40;47.10
1329;DHT22;658;48.820;9.354;2022-07-17T00:21:25;23.40;47.00
1329;DHT22;658;48.820;9.354;2022-07-17T00:25:26;23.40;47.00
1329;DHT22;658;48.820;9.354;2022-07-17T00:29:26;23.40;47.10
1329;DHT22;658;48.820;9.354;2022-07-17T00:33:27;23.30;47.10
1329;DHT22;658;48.820;9.354;2022-07-17T00:37:28;23.30;47.00
1329;DHT22;658;48.820;9.354;2022-07-17T00:41:28;23.30;47.00
1329;DHT22;658;48.820;9.354;2022-07-17T00:45:29;23.30;47.00
1329;DHT22;658;48.820;9.354;2022-07-17T00:49:30;23.30;47.00
1329;DHT22;658;48.820;9.354;2022-07-17T00:53:35;23.30;47.00
1329;DHT22;658;48.820;9.354;2022-07-17T00:57:36;23.30;47.00
1329;DHT22;658;48.820;9.354;2022-07-17T01:01:39;23.30;47.10
1329;DHT22;658;48.820;9.354;2022-07-17T01:05:40;23.30;47.10
1329;DHT22;658;48.820;9.354;2022-07-17T01:09:41;23.20;47.60
1329;DHT22;658;48.820;9.354;2022-07-17T01:13:42;23.20;47.00
1329;DHT22;658;48.820;9.354;2022-07-17T01:17:43;23.30;47.10
1329;DHT22;658;48.820;9.354;2022-07-17T01:21:46;23.20;47.00
1329;DHT22;658;48.820;9.354;2022-07-17T01:25:46;23.20;47.10
1329;DHT22;658;48.820;9.354;2022-07-17T01:29:47;23.20;47.10
1329;DHT22;658;48.820;9.354;2022-07-17T01:33:49;23.20;47.10
1329;DHT22;658;48.820;9.354;2022-07-17T01:37:49;23.20;47.10
1329;DHT22;658;48.820;9.354;2022-07-17T01:41:50;23.20;47.20
1329;DHT22;658;48.820;9.354;2022-07-17T01:45:51;23.10;47.10
1329;DHT22;658;48.820;9.354;2022-07-17T01:49:54;23.10;47.10
1329;DHT22;658;48.820;9.354;2022-07-17T01:53:55;23.10;47.10
1329;DHT22;658;48.820;9.354;2022-07-17T01:57:56;23.10;47.10
1329;DHT22;658;48.820;9.354;2022-07-17T02:01:57;23.10;47.10
1329;DHT22;658;48.820;9.354;2022-07-17T02:05:58;23.00;47.00
1329;DHT22;658;48.820;9.354;2022-07-17T02:09:58;23.00;47.10
1329;DHT22;658;48.820;9.354;2022-07-17T02:13:59;23.00;47.00
1329;DHT22;658;48.820;9.354;2022-07-17T02:17:59;23.00;47.10
1329;DHT22;658;48.820;9.354;2022-07-17T02:22:00;23.00;47.10
1329;DHT22;658;48.820;9.354;2022-07-17T02:26:01;23.00;47.20
1329;DHT22;658;48.820;9.354;2022-07-17T02:30:07;22.90;47.10
1329;DHT22;658;48.820;9.354;2022-07-17T02:34:08;22.90;47.10
1329;DHT22;658;48.820;9.354;2022-07-17T02:38:08;22.90;47.10
1329;DHT22;658;48.820;9.354;2022-07-17T02:42:09;22.90;47.10
1329;DHT22;658;48.820;9.354;2022-07-17T02:46:09;22.90;47.20
1329;DHT22;658;48.820;9.354;2022-07-17T02:50:10;22.90;47.20
1329;DHT22;658;48.820;9.354;2022-07-17T02:54:11;22.80;47.20
1329;DHT22;658;48.820;9.354;2022-07-17T02:58:11;22.80;47.40
1329;DHT22;658;48.820;9.354;2022-07-17T03:02:13;22.80;47.30
1329;DHT22;658;48.820;9.354;2022-07-17T03:06:13;22.70;47.40
1329;DHT22;658;48.820;9.354;2022-07-17T03:10:14;22.70;47.40
1329;DHT22;658;48.820;9.354;2022-07-17T03:14:15;22.60;47.40
1329;DHT22;658;48.820;9.354;2022-07-17T03:18:16;22.60;47.40
1329;DHT22;658;48.820;9.354;2022-07-17T03:22:16;22.60;47.50
1329;DHT22;658;48.820;9.354;2022-07-17T03:26:17;22.50;47.50
1329;DHT22;658;48.820;9.354;2022-07-17T03:30:17;22.50;47.50
1329;DHT22;658;48.820;9.354;2022-07-17T03:34:18;22.50;47.60
1329;DHT22;658;48.820;9.354;2022-07-17T03:38:19;22.50;47.60
1329;DHT22;658;48.820;9.354;2022-07-17T03:42:19;22.50;47.60
1329;DHT22;658;48.820;9.354;2022-07-17T03:46:21;22.50;47.60
1329;DHT22;658;48.820;9.354;2022-07-17T03:50:21;22.40;47.50
1329;DHT22;658;48.820;9.354;2022-07-17T03:54:22;22.40;47.60
1329;DHT22;658;48.820;9.354;2022-07-17T03:58:23;22.40;47.60
1329;DHT22;658;48.820;9.354;2022-07-17T04:02:23;22.40;47.60
1329;DHT22;658;48.820;9.354;2022-07-17T04:06:24;22.30;47.60
1329;DHT22;658;48.820;9.354;2022-07-17T04:10:25;22.30;47.70
1329;DHT22;658;48.820;9.354;2022-07-17T04:14:25;22.30;47.70
1329;DHT22;658;48.820;9.354;2022-07-17T04:18:31;22.30;47.70
1329;DHT22;658;48.820;9.354;2022-07-17T04:22:32;22.30;47.80
1329;DHT22;658;48.820;9.354;2022-07-17T04:26:33;22.20;47.80
1329;DHT22;658;48.820;9.354;2022-07-17T04:30:33;22.20;47.90
1329;DHT22;658;48.820;9.354;2022-07-17T04:34:35;22.20;47.80
1329;DHT22;658;48.820;9.354;2022-07-17T04:38:35;22.20;47.90
1329;DHT22;658;48.820;9.354;2022-07-17T04:42:36;22.20;48.00
1329;DHT22;658;48.820;9.354;2022-07-17T04:46:37;22.20;48.10
1329;DHT22;658;48.820;9.354;2022-07-17T04:50:37;22.20;48.10
1329;DHT22;658;48.820;9.354;2022-07-17T04:54:38;22.20;48.20
1329;DHT22;658;48.820;9.354;2022-07-17T04:58:38;22.20;48.30
1329;DHT22;658;48.820;9.354;2022-07-17T05:02:39;22.20;48.40
1329;DHT22;658;48.820;9.354;2022-07-17T05:06:40;22.20;49.00
1329;DHT22;658;48.820;9.354;2022-07-17T05:10:40;22.20;48.50
1329;DHT22;658;48.820;9.354;2022-07-17T05:14:41;22.20;48.60
1329;DHT22;658;48.820;9.354;2022-07-17T05:18:41;22.30;48.70
1329;DHT22;658;48.820;9.354;2022-07-17T05:22:42;22.30;48.70
1329;DHT22;658;48.820;9.354;2022-07-17T05:26:43;22.30;48.60
1329;DHT22;658;48.820;9.354;2022-07-17T05:30:43;22.30;48.60
1329;DHT22;658;48.820;9.354;2022-07-17T05:34:44;22.30;48.70
1329;DHT22;658;48.820;9.354;2022-07-17T05:38:44;22.40;48.60
1329;DHT22;658;48.820;9.354;2022-07-17T05:42:45;22.40;48.60
1329;DHT22;658;48.820;9.354;2022-07-17T05:46:46;22.50;48.60
1329;DHT22;658;48.820;9.354;2022-07-17T05:50:46;22.40;48.70
1329;DHT22;658;48.820;9.354;2022-07-17T05:54:47;22.50;48.60
1329;DHT22;658;48.820;9.354;2022-07-17T05:58:48;22.50;48.70
1329;DHT22;658;48.820;9.354;2022-07-17T06:02:48;22.50;48.70
1329;DHT22;658;48.820;9.354;2022-07-17T06:06:49;22.60;48.70
1329;DHT22;658;48.820;9.354;2022-07-17T06:10:49;22.60;48.60
1329;DHT22;658;48.820;9.354;2022-07-17T06:14:50;22.60;48.50
1329;DHT22;658;48.820;9.354;2022-07-17T06:18:51;22.70;48.60
1329;DHT22;658;48.820;9.354;2022-07-17T06:22:51;22.70;48.40
1329;DHT22;658;48.820;9.354;2022-07-17T06:26:52;22.70;48.40
1329;DHT22;658;48.820;9.354;2022-07-17T06:30:53;22.60;48.50
1329;DHT22;658;48.820;9.354;2022-07-17T06:34:53;22.60;48.50
1329;DHT22;658;48.820;9.354;2022-07-17T06:38:54;22.60;48.50
1329;DHT22;658;48.820;9.354;2022-07-17T06:42:55;22.60;48.40
1329;DHT22;658;48.820;9.354;2022-07-17T06:46:55;22.60;48.40
1329;DHT22;658;48.820;9.354;2022-07-17T06:50:56;22.60;48.40
1329;DHT22;658;48.820;9.354;2022-07-17T06:54:57;22.70;48.40
1329;DHT22;658;48.820;9.354;2022-07-17T06:58:58;22.70;48.30
1329;DHT22;658;48.820;9.354;2022-07-17T07:02:58;22.70;48.40
1329;DHT22;658;48.820;9.354;2022-07-17T07:06:59;22.70;48.00
1329;DHT22;658;48.820;9.354;2022-07-17T07:11:01;22.70;48.00
1329;DHT22;658;48.820;9.354;2022-07-17T07:15:02;22.70;48.50
1329;DHT22;658;48.820;9.354;2022-07-17T07:19:03;22.70;47.90
1329;DHT22;658;48.820;9.354;2022-07-17T07:23:04;22.70;47.90
1329;DHT22;658;48.820;9.354;2022-07-17T07:27:05;22.80;47.90
1329;DHT22;658;48.820;9.354;2022-07-17T07:31:06;22.80;48.00
1329;DHT22;658;48.820;9.354;2022-07-17T07:35:07;22.70;48.20
1329;DHT22;658;48.820;9.354;2022-07-17T07:39:08;22.70;48.30
1329;DHT22;658;48.820;9.354;2022-07-17T07:43:08;22.70;48.10
1329;DHT22;658;48.820;9.354;2022-07-17T07:47:09;22.80;48.00
1329;DHT22;658;48.820;9.354;2022-07-17T07:51:10;22.90;48.20
1329;DHT22;658;48.820;9.354;2022-07-17T07:55:12;22.90;48.40
1329;DHT22;658;48.820;9.354;2022-07-17T07:59:13;22.90;48.40
1329;DHT22;658;48.820;9.354;2022-07-17T08:03:14;22.90;48.30
1329;DHT22;658;48.820;9.354;2022-07-17T08:07:14;22.90;48.40
1329;DHT22;658;48.820;9.354;2022-07-17T08:11:15;22.90;48.70
1329;DHT22;658;48.820;9.354;2022-07-17T08:15:18;23.00;48.60
1329;DHT22;658;48.820;9.354;2022-07-17T08:19:19;23.00;48.50
1329;DHT22;658;48.820;9.354;2022-07-17T08:23:19;23.00;48.40
1329;DHT22;658;48.820;9.354;2022-07-17T08:27:20;23.10;48.50
1329;DHT22;658;48.820;9.354;2022-07-17T08:31:22;23.20;48.40
1329;DHT22;658;48.820;9.354;2022-07-17T08:35:23;23.20;48.20
1329;DHT22;658;48.820;9.354;2022-07-17T08:39:23;23.20;48.10
1329;DHT22;658;48.820;9.354;2022-07-17T08:43:24;23.30;48.00
1329;DHT22;658;48.820;9.354;2022-07-17T08:47:25;23.30;47.90
1329;DHT22;658;48.820;9.354;2022-07-17T08:51:27;23.30;47.80
1329;DHT22;658;48.820;9.354;2022-07-17T08:55:28;23.30;47.70
1329;DHT22;658;48.820;9.354;2022-07-17T08:59:29;23.50;47.60
1329;DHT22;658;48.820;9.354;2022-07-17T09:03:30;23.50;47.30
1329;DHT22;658;48.820;9.354;2022-07-17T09:07:31;23.50;47.10
1329;DHT22;658;48.820;9.354;2022-07-17T09:11:49;23.60;46.90
1329;DHT22;658;48.820;9.354;2022-07-17T09:16:05;23.70;46.90
1329;DHT22;658;48.820;9.354;2022-07-17T09:20:13;23.80;46.70
1329;DHT22;658;48.820;9.354;2022-07-17T09:24:14;23.80;46.30
1329;DHT22;658;48.820;9.354;2022-07-17T09:28:15;23.90;46.30
1329;DHT22;658;48.820;9.354;2022-07-17T09:32:20;23.90;46.20
1329;DHT22;658;48.820;9.354;2022-07-17T09:36:21;24.00;46.00
1329;DHT22;658;48.820;9.354;2022-07-17T09:40:22;24.00;45.60
1329;DHT22;658;48.820;9.354;2022-07-17T09:44:42;24.10;44.40
1329;DHT22;658;48.820;9.354;2022-07-17T09:48:55;24.10;43.50
1329;DHT22;658;48.820;9.354;2022-07-17T09:52:57;24.10;43.30
1329;DHT22;658;48.820;9.354;2022-07-17T09:56:58;24.10;43.40
1329;DHT22;658;48.820;9.354;2022-07-17T10:01:00;24.20;42.40
1329;DHT22;658;48.820;9.354;2022-07-17T10:05:01;24.30;42.30
1329;DHT22;658;48.820;9.354;2022-07-17T10:09:03;24.30;42.30
1329;DHT22;658;48.820;9.354;2022-07-17T10:13:05;24.30;42.00
1329;DHT22;658;48.820;9.354;2022-07-17T10:17:11;24.40;41.90
1329;DHT22;658;48.820;9.354;2022-07-17T10:21:14;24.50;42.00
1329;DHT22;658;48.820;9.354;2022-07-17T10:25:16;24.50;42.30
1329;DHT22;658;48.820;9.354;2022-07-17T10:29:32;24.50;42.40
1329;DHT22;658;48.820;9.354;2022-07-17T10:33:33;24.50;41.60
1329;DHT22;658;48.820;9.354;2022-07-17T10:41:41;24.60;41.70
1329;DHT22;658;48.820;9.354;2022-07-17T10:45:44;24.60;41.50
1329;DHT22;658;48.820;9.354;2022-07-17T10:49:45;24.70;40.90
1329;DHT22;658;48.820;9.354;2022-07-17T10:53:46;24.80;41.20
1329;DHT22;658;48.820;9.354;2022-07-17T10:57:46;24.90;40.90
1329;DHT22;658;48.820;9.354;2022-07-17T11:01:56;25.00;41.20
1329;DHT22;658;48.820;9.354;2022-07-17T11:06:13;25.10;41.10
1329;DHT22;658;48.820;9.354;2022-07-17T11:10:16;25.20;40.90
1329;DHT22;658;48.820;9.354;2022-07-17T11:14:18;25.20;39.70
1329;DHT22;658;48.820;9.354;2022-07-17T11:18:20;25.30;39.20
1329;DHT22;658;48.820;9.354;2022-07-17T11:22:25;25.40;38.80
1329;DHT22;658;48.820;9.354;2022-07-17T11:26:25;25.50;38.80
1329;DHT22;658;48.820;9.354;2022-07-17T11:30:26;25.60;38.40
1329;DHT22;658;48.820;9.354;2022-07-17T11:34:27;25.60;38.60
1329;DHT22;658;48.820;9.354;2022-07-17T11:38:29;25.70;38.20
1329;DHT22;658;48.820;9.354;2022-07-17T11:42:30;25.80;37.60
1329;DHT22;658;48.820;9.354;2022-07-17T11:46:31;25.80;38.10
1329;DHT22;658;48.820;9.354;2022-07-17T11:50:33;25.90;37.60
1329;DHT22;658;48.820;9.354;2022-07-17T11:55:04;26.00;37.60
1329;DHT22;658;48.820;9.354;2022-07-17T11:59:05;26.00;37.10
1329;DHT22;658;48.820;9.354;2022-07-17T12:03:07;26.00;37.40
1329;DHT22;658;48.820;9.354;2022-07-17T12:07:07;26.00;37.60
1329;DHT22;658;48.820;9.354;2022-07-17T12:11:08;26.10;37.80
1329;DHT22;658;48.820;9.354;2022-07-17T12:15:09;26.10;38.00
1329;DHT22;658;48.820;9.354;2022-07-17T12:19:11;26.10;38.10
1329;DHT22;658;48.820;9.354;2022-07-17T12:23:37;26.10;38.10
1329;DHT22;658;48.820;9.354;2022-07-17T12:27:38;26.20;37.90
1329;DHT22;658;48.820;9.354;2022-07-17T12:31:39;26.20;37.50
1329;DHT22;658;48.820;9.354;2022-07-17T12:35:40;26.20;37.60
1329;DHT22;658;48.820;9.354;2022-07-17T12:39:40;26.30;37.30
1329;DHT22;658;48.820;9.354;2022-07-17T12:43:41;26.30;37.40
1329;DHT22;658;48.820;9.354;2022-07-17T12:47:42;26.40;36.80
1329;DHT22;658;48.820;9.354;2022-07-17T12:51:42;26.40;36.80
1329;DHT22;658;48.820;9.354;2022-07-17T12:55:43;26.30;36.50
1329;DHT22;658;48.820;9.354;2022-07-17T12:59:44;26.30;35.80
1329;DHT22;658;48.820;9.354;2022-07-17T13:03:45;26.30;35.10
1329;DHT22;658;48.820;9.354;2022-07-17T13:07:46;26.40;34.90
1329;DHT22;658;48.820;9.354;2022-07-17T13:11:47;26.40;35.00
1329;DHT22;658;48.820;9.354;2022-07-17T13:15:48;26.40;35.40
1329;DHT22;658;48.820;9.354;2022-07-17T13:19:48;26.40;35.90
1329;DHT22;658;48.820;9.354;2022-07-17T13:23:49;26.30;36.20
1329;DHT22;658;48.820;9.354;2022-07-17T13:27:50;26.20;36.60
1329;DHT22;658;48.820;9.354;2022-07-17T13:31:50;26.20;36.80
1329;DHT22;658;48.820;9.354;2022-07-17T13:35:52;26.20;37.00
1329;DHT22;658;48.820;9.354;2022-07-17T13:39:54;26.20;37.40
1329;DHT22;658;48.820;9.354;2022-07-17T13:43:55;26.10;37.60
1329;DHT22;658;48.820;9.354;2022-07-17T13:47:55;26.10;37.70
1329;DHT22;658;48.820;9.354;2022-07-17T13:51:56;26.10;38.00
1329;DHT22;658;48.820;9.354;2022-07-17T13:55:57;26.00;38.10
1329;DHT22;658;48.820;9.354;2022-07-17T13:59:58;26.00;38.30
1329;DHT22;658;48.820;9.354;2022-07-17T14:04:01;26.00;38.50
1329;DHT22;658;48.820;9.354;2022-07-17T14:08:01;26.00;38.60
1329;DHT22;658;48.820;9.354;2022-07-17T14:12:03;26.00;38.90
1329;DHT22;658;48.820;9.354;2022-07-17T14:16:04;25.90;38.90
1329;DHT22;658;48.820;9.354;2022-07-17T14:20:05;25.90;39.00
1329;DHT22;658;48.820;9.354;2022-07-17T14:24:06;25.90;39.10
1329;DHT22;658;48.820;9.354;2022-07-17T14:28:07;25.90;39.20
1329;DHT22;658;48.820;9.354;2022-07-17T14:32:08;25.90;39.40
1329;DHT22;658;48.820;9.354;2022-07-17T14:36:10;25.90;39.40
1329;DHT22;658;48.820;9.354;2022-07-17T14:40:13;25.90;39.40
1329;DHT22;658;48.820;9.354;2022-07-17T14:44:14;25.90;39.60
1329;DHT22;658;48.820;9.354;2022-07-17T14:48:15;25.80;39.60
1329;DHT22;658;48.820;9.354;2022-07-17T14:52:15;25.90;39.70
1329;DHT22;658;48.820;9.354;2022-07-17T14:56:16;25.90;39.70
1329;DHT22;658;48.820;9.354;2022-07-17T15:00:17;25.90;39.70
1329;DHT22;658;48.820;9.354;2022-07-17T15:04:18;25.80;39.70
1329;DHT22;658;48.820;9.354;2022-07-17T15:08:18;25.80;39.80
1329;DHT22;658;48.820;9.354;2022-07-17T15:12:19;25.80;39.80
1329;DHT22;658;48.820;9.354;2022-07-17T15:16:20;25.70;39.90
1329;DHT22;658;48.820;9.354;2022-07-17T15:20:21;25.70;40.00
1329;DHT22;658;48.820;9.354;2022-07-17T15:24:21;25.80;40.00
1329;DHT22;658;48.820;9.354;2022-07-17T15:28:22;25.80;39.90
1329;DHT22;658;48.820;9.354;2022-07-17T15:32:23;25.80;39.90
1329;DHT22;658;48.820;9.354;2022-07-17T15:36:23;25.80;40.00
1329;DHT22;658;48.820;9.354;2022-07-17T15:40:27;25.80;40.00
1329;DHT22;658;48.820;9.354;2022-07-17T15:44:28;25.80;40.00
1329;DHT22;658;48.820;9.354;2022-07-17T15:48:28;25.80;40.10
1329;DHT22;658;48.820;9.354;2022-07-17T15:52:29;25.70;40.10
1329;DHT22;658;48.820;9.354;2022-07-17T15:56:30;25.70;40.20
1329;DHT22;658;48.820;9.354;2022-07-17T16:00:31;25.70;40.30
1329;DHT22;658;48.820;9.354;2022-07-17T16:04:31;25.70;40.30
1329;DHT22;658;48.820;9.354;2022-07-17T16:08:32;25.70;39.90
1329;DHT22;658;48.820;9.354;2022-07-17T16:12:33;25.70;40.20
1329;DHT22;658;48.820;9.354;2022-07-17T16:16:33;25.60;40.40
1329;DHT22;658;48.820;9.354;2022-07-17T16:20:34;25.60;40.40
1329;DHT22;658;48.820;9.354;2022-07-17T16:24:35;25.60;40.60
1329;DHT22;658;48.820;9.354;2022-07-17T16:28:36;25.60;40.60
1329;DHT22;658;48.820;9.354;2022-07-17T16:32:37;25.60;40.50
1329;DHT22;658;48.820;9.354;2022-07-17T16:36:38;25.60;40.60
1329;DHT22;658;48.820;9.354;2022-07-17T16:40:39;25.60;40.70
1329;DHT22;658;48.820;9.354;2022-07-17T16:44:41;25.60;40.70
1329;DHT22;658;48.820;9.354;2022-07-17T16:48:41;25.60;40.80
1329;DHT22;658;48.820;9.354;2022-07-17T16:52:42;25.60;40.80
1329;DHT22;658;48.820;9.354;2022-07-17T16:56:43;25.60;41.00
1329;DHT22;658;48.820;9.354;2022-07-17T17:00:44;25.60;40.80
1329;DHT22;658;48.820;9.354;2022-07-17T17:04:44;25.60;40.90
1329;DHT22;658;48.820;9.354;2022-07-17T17:08:45;25.60;40.60
1329;DHT22;658;48.820;9.354;2022-07-17T17:12:46;25.60;42.60
1329;DHT22;658;48.820;9.354;2022-07-17T17:16:46;25.60;41.30
1329;DHT22;658;48.820;9.354;2022-07-17T17:20:47;25.60;41.20
1329;DHT22;658;48.820;9.354;2022-07-17T17:24:48;25.60;41.10
1329;DHT22;658;48.820;9.354;2022-07-17T17:28:48;25.60;41.30
1329;DHT22;658;48.820;9.354;2022-07-17T17:32:49;25.60;41.40
1329;DHT22;658;48.820;9.354;2022-07-17T17:36:50;25.60;41.40
1329;DHT22;658;48.820;9.354;2022-07-17T17:40:50;25.60;41.50
1329;DHT22;658;48.820;9.354;2022-07-17T17:44:51;25.50;42.10
1329;DHT22;658;48.820;9.354;2022-07-17T17:48:52;25.50;41.70
1329;DHT22;658;48.820;9.354;2022-07-17T17:52:52;25.50;41.80
1329;DHT22;658;48.820;9.354;2022-07-17T17:56:53;25.50;41.90
1329;DHT22;658;48.820;9.354;2022-07-17T18:00:54;25.50;41.90
1329;DHT22;658;48.820;9.354;2022-07-17T18:04:55;25.50;42.00
1329;DHT22;658;48.820;9.354;2022-07-17T18:08:55;25.50;42.00
1329;DHT22;658;48.820;9.354;2022-07-17T18:12:56;25.50;42.00
1329;DHT22;658;48.820;9.354;2022-07-17T18:16:57;25.50;42.00
1329;DHT22;658;48.820;9.354;2022-07-17T18:20:57;25.50;42.00
1329;DHT22;658;48.820;9.354;2022-07-17T18:24:58;25.50;41.90
1329;DHT22;658;48.820;9.354;2022-07-17T18:28:59;25.50;41.90
1329;DHT22;658;48.820;9.354;2022-07-17T18:33:00;25.50;41.90
1329;DHT22;658;48.820;9.354;2022-07-17T18:37:00;25.50;41.90
1329;DHT22;658;48.820;9.354;2022-07-17T18:41:01;25.50;42.50
1329;DHT22;658;48.820;9.354;2022-07-17T18:45:02;25.50;41.90
1329;DHT22;658;48.820;9.354;2022-07-17T18:49:02;25.50;41.90
1329;DHT22;658;48.820;9.354;2022-07-17T18:53:03;25.50;41.90
1329;DHT22;658;48.820;9.354;2022-07-17T18:57:04;25.50;41.90
1329;DHT22;658;48.820;9.354;2022-07-17T19:01:05;25.50;41.90
1329;DHT22;658;48.820;9.354;2022-07-17T19:05:08;25.50;41.90
1329;DHT22;658;48.820;9.354;2022-07-17T19:09:09;25.50;42.00
1329;DHT22;658;48.820;9.354;2022-07-17T19:13:09;25.50;42.10
1329;DHT22;658;48.820;9.354;2022-07-17T19:17:11;25.50;42.20
1329;DHT22;658;48.820;9.354;2022-07-17T19:21:12;25.50;42.20
1329;DHT22;658;48.820;9.354;2022-07-17T19:25:13;25.40;42.20
1329;DHT22;658;48.820;9.354;2022-07-17T19:29:13;25.40;42.30
1329;DHT22;658;48.820;9.354;2022-07-17T19:33:14;25.40;42.40
1329;DHT22;658;48.820;9.354;2022-07-17T19:37:15;25.40;42.40
1329;DHT22;658;48.820;9.354;2022-07-17T19:41:15;25.40;42.50
1329;DHT22;658;48.820;9.354;2022-07-17T19:45:16;25.40;42.50
1329;DHT22;658;48.820;9.354;2022-07-17T19:49:17;25.40;42.60
1329;DHT22;658;48.820;9.354;2022-07-17T19:53:18;25.40;42.60
1329;DHT22;658;48.820;9.354;2022-07-17T19:57:18;25.40;42.60
1329;DHT22;658;48.820;9.354;2022-07-17T20:01:21;25.40;42.60
1329;DHT22;658;48.820;9.354;2022-07-17T20:05:22;25.30;43.00
1329;DHT22;658;48.820;9.354;2022-07-17T20:09:22;25.00;43.20
1329;DHT22;658;48.820;9.354;2022-07-17T20:13:23;25.00;43.00
1329;DHT22;658;48.820;9.354;2022-07-17T20:17:25;24.80;43.60
1329;DHT22;658;48.820;9.354;2022-07-17T20:21:26;24.70;44.20
1329;DHT22;658;48.820;9.354;2022-07-17T20:25:27;24.50;44.70
1329;DHT22;658;48.820;9.354;2022-07-17T20:29:28;24.30;44.60
1329;DHT22;658;48.820;9.354;2022-07-17T20:33:28;24.20;45.30
1329;DHT22;658;48.820;9.354;2022-07-17T20:37:29;24.10;45.70
1329;DHT22;658;48.820;9.354;2022-07-17T20:41:30;24.00;46.10
1329;DHT22;658;48.820;9.354;2022-07-17T20:45:30;23.90;46.10
1329;DHT22;658;48.820;9.354;2022-07-17T20:49:31;23.90;46.90
1329;DHT22;658;48.820;9.354;2022-07-17T20:53:32;23.90;46.60
1329;DHT22;658;48.820;9.354;2022-07-17T20:57:32;23.70;47.00
1329;DHT22;658;48.820;9.354;2022-07-17T21:01:34;23.70;47.10
1329;DHT22;658;48.820;9.354;2022-07-17T21:05:34;23.60;47.10
1329;DHT22;658;48.820;9.354;2022-07-17T21:09:35;23.50;47.20
1329;DHT22;658;48.820;9.354;2022-07-17T21:13:36;23.40;47.30
1329;DHT22;658;48.820;9.354;2022-07-17T21:17:37;23.40;47.50
1329;DHT22;658;48.820;9.354;2022-07-17T21:21:38;23.50;47.20
1329;DHT22;658;48.820;9.354;2022-07-17T21:25:39;23.70;46.60
1329;DHT22;658;48.820;9.354;2022-07-17T21:29:39;23.90;46.40
1329;DHT22;658;48.820;9.354;2022-07-17T21:33:40;24.00;46.70
1329;DHT22;658;48.820;9.354;2022-07-17T21:37:40;24.10;46.10
1329;DHT22;658;48.820;9.354;2022-07-17T21:41:41;24.10;46.00
1329;DHT22;658;48.820;9.354;2022-07-17T21:45:42;24.10;46.00
1329;DHT22;658;48.820;9.354;2022-07-17T21:49:42;24.10;45.90
1329;DHT22;658;48.820;9.354;2022-07-17T21:53:43;24.10;45.80
1329;DHT22;658;48.820;9.354;2022-07-17T21:57:44;24.20;45.90
1329;DHT22;658;48.820;9.354;2022-07-17T22:01:45;24.20;45.80
1329;DHT22;658;48.820;9.354;2022-07-17T22:05:46;24.20;45.80
1329;DHT22;658;48.820;9.354;2022-07-17T22:09:47;24.10;45.70
1329;DHT22;658;48.820;9.354;2022-07-17T22:13:48;24.10;45.80
1329;DHT22;658;48.820;9.354;2022-07-17T22:17:49;24.10;45.70
1329;DHT22;658;48.820;9.354;2022-07-17T22:21:50;24.10;45.80
1329;DHT22;658;48.820;9.354;2022-07-17T22:25:50;24.10;45.80
1329;DHT22;658;48.820;9.354;2022-07-17T22:29:51;24.10;45.80
1329;DHT22;658;48.820;9.354;2022-07-17T22:33:52;24.10;45.70
1329;DHT22;658;48.820;9.354;2022-07-17T22:37:53;24.10;46.30
1329;DHT22;658;48.820;9.354;2022-07-17T22:41:53;24.10;45.70
1329;DHT22;658;48.820;9.354;2022-07-17T22:45:54;24.10;45.70
1329;DHT22;658;48.820;9.354;2022-07-17T22:49:55;24.10;45.90
1329;DHT22;658;48.820;9.354;2022-07-17T22:53:55;24.00;45.90
1329;DHT22;658;48.820;9.354;2022-07-17T22:57:56;24.00;46.00
1329;DHT22;658;48.820;9.354;2022-07-17T23:01:57;24.00;46.00
1329;DHT22;658;48.820;9.354;2022-07-17T23:05:58;24.00;46.00
1329;DHT22;658;48.820;9.354;2022-07-17T23:09:59;24.00;46.00
1329;DHT22;658;48.820;9.354;2022-07-17T23:14:00;24.00;46.00
1329;DHT22;658;48.820;9.354;2022-07-17T23:18:00;24.00;46.00
1329;DHT22;658;48.820;9.354;2022-07-17T23:22:01;23.90;45.90
1329;DHT22;658;48.820;9.354;2022-07-17T23:26:02;23.90;45.80
1329;DHT22;658;48.820;9.354;2022-07-17T23:30:04;23.90;46.00
1329;DHT22;658;48.820;9.354;2022-07-17T23:34:07;23.90;45.90
1329;DHT22;658;48.820;9.354;2022-07-17T23:38:07;23.90;45.90
1329;DHT22;658;48.820;9.354;2022-07-17T23:42:08;23.90;46.40
1329;DHT22;658;48.820;9.354;2022-07-17T23:46:09;23.80;45.80
1329;DHT22;658;48.820;9.354;2022-07-17T23:50:10;23.80;45.90
1329;DHT22;658;48.820;9.354;2022-07-17T23:54:11;23.80;46.00
1329;DHT22;658;48.820;9.354;2022-07-17T23:58:12;23.80;46.00
